createdAt,value
2019-01-26T00:02:35.527Z,22.87
2019-01-26T00:07:54.366Z,14.33
2019-01-26T00:13:18.742Z,11.35
2019-01-26T00:18:51.475Z,18.80
2019-01-26T00:24:10.152Z,23.73
2019-01-26T00:29:32.878Z,22.00
2019-01-26T00:34:51.678Z,20.13
2019-01-26T00:40:13.244Z,28.47
2019-01-26T00:45:32.157Z,16.33
2019-01-26T00:50:51.121Z,20.57
2019-01-26T00:56:09.848Z,21.20
2019-01-26T01:01:28.784Z,22.53
2019-01-26T01:06:47.478Z,24.53
2019-01-26T01:12:06.549Z,17.50
2019-01-26T01:17:25.094Z,21.80
2019-01-26T01:22:43.731Z,28.13
2019-01-26T01:28:05.350Z,19.03
2019-01-26T01:33:23.952Z,31.03
2019-01-26T01:38:42.792Z,32.60
2019-01-26T01:44:01.454Z,33.47
2019-01-26T01:49:20.087Z,33.73
2019-01-26T01:54:38.641Z,25.37
2019-01-26T01:59:57.284Z,26.33
2019-01-26T02:05:17.530Z,24.17
2019-01-26T02:10:39.986Z,21.93
2019-01-26T02:15:59.932Z,36.20
2019-01-26T02:21:19.004Z,32.35
2019-01-26T02:26:40.324Z,27.37
2019-01-26T02:32:03.231Z,39.90
2019-01-26T02:37:22.004Z,29.45
2019-01-26T02:42:41.670Z,28.40
2019-01-26T02:48:02.107Z,35.33
2019-01-26T02:53:20.679Z,24.77
2019-01-26T02:58:39.260Z,44.50
2019-01-26T03:03:57.910Z,40.20
2019-01-26T03:09:16.546Z,35.00
2019-01-26T03:14:35.150Z,45.00
2019-01-26T03:19:53.742Z,39.10
2019-01-26T03:25:15.070Z,40.67
2019-01-26T03:30:33.699Z,37.27
2019-01-26T03:35:52.617Z,44.27
2019-01-26T03:41:11.271Z,30.20
2019-01-26T03:46:29.905Z,42.67
2019-01-26T03:51:48.451Z,40.37
2019-01-26T03:57:07.074Z,29.93
2019-01-26T04:02:25.717Z,39.70
2019-01-26T04:07:44.698Z,45.43
2019-01-26T04:13:03.332Z,30.17
2019-01-26T04:18:21.974Z,25.17
2019-01-26T04:23:40.615Z,34.73
2019-01-26T04:28:59.123Z,30.23
2019-01-26T04:34:18.020Z,38.87
2019-01-26T04:39:36.514Z,30.23
2019-01-26T04:44:55.220Z,37.20
2019-01-26T04:50:15.853Z,36.50
2019-01-26T04:55:34.419Z,40.20
2019-01-26T05:00:53.063Z,19.47
2019-01-26T05:06:11.698Z,44.30
2019-01-26T05:11:30.330Z,41.10
2019-01-26T05:16:48.895Z,29.13
2019-01-26T05:22:07.551Z,31.07
2019-01-26T05:27:26.207Z,38.40
2019-01-26T05:32:44.862Z,35.30
2019-01-26T05:38:04.048Z,47.50
2019-01-26T05:43:22.605Z,29.53
2019-01-26T05:48:41.314Z,30.10
2019-01-26T05:53:59.920Z,21.07
2019-01-26T05:59:20.774Z,28.73
2019-01-26T06:04:40.025Z,38.00
2019-01-26T06:09:58.578Z,47.13
2019-01-26T06:15:17.708Z,33.23
2019-01-26T06:20:36.348Z,37.13
2019-01-26T06:25:54.997Z,36.23
2019-01-26T06:31:13.626Z,40.70
2019-01-26T06:36:32.312Z,22.80
2019-01-26T06:41:50.984Z,37.67
2019-01-26T06:47:09.625Z,35.53
2019-01-26T06:52:28.107Z,34.57
2019-01-26T06:57:46.872Z,29.20
2019-01-26T07:03:05.530Z,39.20
2019-01-26T07:08:24.324Z,32.80
2019-01-26T07:13:42.966Z,33.35
2019-01-26T07:19:01.556Z,31.43
2019-01-26T07:24:21.004Z,38.00
2019-01-26T07:29:39.676Z,32.73
2019-01-26T07:34:58.521Z,28.63
2019-01-26T07:40:22.205Z,26.20
2019-01-26T07:45:40.835Z,27.32
2019-01-26T07:50:59.491Z,28.60
2019-01-26T07:56:18.132Z,29.40
2019-01-26T08:01:36.798Z,33.77
2019-01-26T08:06:55.442Z,29.57
2019-01-26T08:12:14.112Z,18.17
2019-01-26T08:17:33.058Z,15.53
2019-01-26T08:22:51.683Z,18.47
2019-01-26T08:28:10.506Z,33.20
2019-01-26T08:33:29.163Z,32.43
2019-01-26T08:38:48.711Z,25.50
2019-01-26T08:44:08.225Z,31.90
2019-01-26T08:49:29.132Z,31.20
2019-01-26T08:54:48.010Z,27.47
2019-01-26T09:00:15.817Z,27.43
2019-01-26T09:05:44.869Z,26.17
2019-01-26T09:11:03.576Z,23.27
2019-01-26T09:16:23.210Z,17.20
2019-01-26T09:21:42.768Z,14.33
2019-01-26T09:27:04.160Z,23.03
2019-01-26T09:32:23.006Z,26.77
2019-01-26T09:37:41.787Z,21.80
2019-01-26T09:43:00.671Z,19.47
2019-01-26T09:48:29.856Z,22.50
2019-01-26T09:53:54.140Z,16.50
2019-01-26T09:59:13.806Z,13.43
2019-01-26T10:04:38.909Z,20.73
2019-01-26T10:10:05.777Z,20.95
2019-01-26T10:15:27.094Z,21.67
2019-01-26T10:20:49.931Z,16.77
2019-01-26T10:26:08.627Z,20.10
2019-01-26T10:31:27.551Z,13.57
2019-01-26T10:37:17.250Z,20.77
2019-01-26T10:42:46.395Z,20.03
2019-01-26T10:48:05.356Z,15.53
2019-01-26T10:53:23.984Z,16.20
2019-01-26T10:58:49.755Z,19.83
2019-01-26T11:04:10.453Z,18.67
2019-01-26T11:09:29.002Z,15.93
2019-01-26T11:14:47.498Z,15.00
2019-01-26T11:20:09.134Z,17.47
2019-01-26T11:25:27.807Z,12.63
2019-01-26T11:30:46.356Z,15.13
2019-01-26T11:36:05.369Z,15.80
2019-01-26T11:41:24.223Z,12.43
2019-01-26T11:46:42.922Z,16.17
2019-01-26T11:52:08.960Z,14.53
2019-01-26T11:57:29.635Z,10.73
2019-01-26T12:02:49.906Z,13.43
2019-01-26T12:08:08.612Z,15.60
2019-01-26T12:13:27.321Z,14.97
2019-01-26T12:18:45.911Z,14.87
2019-01-26T12:24:04.532Z,12.43
2019-01-26T12:29:23.100Z,9.93
2019-01-26T12:34:42.074Z,13.57
2019-01-26T12:40:13.100Z,14.37
2019-01-26T12:45:44.453Z,12.83
2019-01-26T12:51:26.062Z,9.67
2019-01-26T12:56:45.180Z,11.00
2019-01-26T13:02:04.303Z,11.63
2019-01-26T13:07:22.947Z,11.03
2019-01-26T13:12:41.589Z,11.60
2019-01-26T13:18:00.204Z,8.40
2019-01-26T13:23:18.831Z,5.83
2019-01-26T13:28:37.712Z,6.43
2019-01-26T13:33:56.323Z,8.07
2019-01-26T13:39:15.044Z,9.87
2019-01-26T13:44:33.613Z,10.07
2019-01-26T13:49:52.237Z,7.87
2019-01-26T13:55:18.914Z,6.23
2019-01-26T14:00:37.954Z,6.67
2019-01-26T14:05:56.574Z,11.90
2019-01-26T14:11:15.103Z,9.40
2019-01-26T14:16:33.780Z,9.23
2019-01-26T14:21:52.410Z,10.77
2019-01-26T14:27:11.076Z,10.37
2019-01-26T14:32:29.693Z,7.50
2019-01-26T14:37:48.580Z,8.73
2019-01-26T14:43:07.193Z,8.10
2019-01-26T14:48:25.808Z,9.57
2019-01-26T14:53:47.684Z,9.13
2019-01-26T14:59:04.794Z,6.77
2019-01-26T15:04:23.327Z,4.63
2019-01-26T15:09:44.135Z,6.30
2019-01-26T15:15:02.701Z,6.80
2019-01-26T15:20:26.574Z,12.33
2019-01-26T15:25:45.259Z,12.30
2019-01-26T15:31:03.966Z,15.80
2019-01-26T15:36:22.887Z,15.60
2019-01-26T15:41:41.817Z,15.57
2019-01-26T15:47:00.527Z,16.43
2019-01-26T15:52:19.137Z,14.53
2019-01-26T15:57:37.762Z,16.20
2019-01-26T16:02:57.039Z,15.43
2019-01-26T16:08:15.667Z,12.20
2019-01-26T16:13:34.231Z,10.40
2019-01-26T16:18:53.048Z,10.50
2019-01-26T16:24:11.687Z,11.13
2019-01-26T16:29:30.219Z,10.33
2019-01-26T16:34:48.931Z,11.73
2019-01-26T16:40:13.523Z,11.07
2019-01-26T16:45:37.768Z,12.17
2019-01-26T16:50:56.514Z,12.07
2019-01-26T16:56:15.226Z,12.37
2019-01-26T17:01:36.397Z,12.50
2019-01-26T17:06:55.048Z,12.70
2019-01-26T17:12:13.841Z,13.07
2019-01-26T17:17:32.579Z,11.57
2019-01-26T17:22:51.191Z,12.73
2019-01-26T17:28:09.802Z,12.63
2019-01-26T17:33:33.097Z,11.57
2019-01-26T17:38:51.727Z,11.73
2019-01-26T17:44:10.363Z,11.07
2019-01-26T17:49:28.973Z,12.33
2019-01-26T17:54:47.458Z,10.33
2019-01-26T18:00:11.632Z,12.37
2019-01-26T18:05:30.439Z,12.00
2019-01-26T18:10:49.065Z,11.33
2019-01-26T18:16:18.362Z,8.90
2019-01-26T18:21:36.982Z,7.23
2019-01-26T18:26:55.552Z,10.23
2019-01-26T18:32:14.181Z,8.80
2019-01-26T18:37:33.005Z,10.50
2019-01-26T18:42:51.668Z,10.27
2019-01-26T18:48:10.237Z,10.10
2019-01-26T18:53:28.782Z,9.47
2019-01-26T18:58:47.486Z,10.07
2019-01-26T19:04:09.383Z,9.53
2019-01-26T19:09:28.254Z,9.57
2019-01-26T19:14:46.774Z,10.03
2019-01-26T19:20:08.674Z,9.23
2019-01-26T19:25:27.394Z,9.20
2019-01-26T19:30:46.032Z,8.03
2019-01-26T19:36:04.901Z,7.70
2019-01-26T19:41:23.518Z,7.77
2019-01-26T19:46:42.131Z,7.07
2019-01-26T19:52:00.664Z,6.40
2019-01-26T19:57:19.216Z,6.40
2019-01-26T20:02:37.920Z,7.23
2019-01-26T20:07:56.465Z,6.93
2019-01-26T20:13:15.083Z,6.53
2019-01-26T20:18:33.714Z,6.37
2019-01-26T20:23:52.331Z,7.17
2019-01-26T20:29:11.006Z,6.73
2019-01-26T20:34:29.850Z,6.30
2019-01-26T20:39:48.961Z,6.17
2019-01-26T20:45:19.625Z,6.10
2019-01-26T20:50:42.350Z,5.67
2019-01-26T20:56:03.330Z,5.63
2019-01-26T21:01:21.918Z,5.33
2019-01-26T21:06:40.458Z,5.40
2019-01-26T21:11:58.920Z,5.70
2019-01-26T21:17:17.650Z,4.77
2019-01-26T21:22:36.376Z,5.23
2019-01-26T21:27:55.073Z,4.73
2019-01-26T21:33:13.814Z,4.30
2019-01-26T21:38:32.791Z,3.63
2019-01-26T21:43:51.303Z,4.00
2019-01-26T21:49:10.744Z,4.07
2019-01-26T21:54:29.363Z,3.17
2019-01-26T21:59:48.176Z,3.53
2019-01-26T22:05:09.190Z,2.93
2019-01-26T22:10:28.708Z,3.00
2019-01-26T22:15:47.329Z,3.00
2019-01-26T22:21:05.953Z,2.97
2019-01-26T22:26:24.574Z,2.93
2019-01-26T22:31:43.120Z,2.53
2019-01-26T22:37:01.741Z,2.60
2019-01-26T22:42:20.299Z,2.97
2019-01-26T22:47:40.356Z,2.50
2019-01-26T22:52:59.055Z,2.90
2019-01-26T22:58:17.688Z,2.23
2019-01-26T23:03:42.210Z,2.20
2019-01-26T23:09:05.407Z,2.30
2019-01-26T23:14:55.838Z,2.17
2019-01-26T23:20:39.090Z,2.70
2019-01-26T23:26:09.455Z,2.37
2019-01-26T23:31:27.914Z,2.70
2019-01-26T23:36:46.459Z,2.13
2019-01-26T23:42:05.091Z,2.50
2019-01-26T23:47:23.634Z,2.77
2019-01-26T23:52:42.275Z,2.40
2019-01-26T23:58:00.869Z,2.13
